createdAt,value
2022-08-22T00:01:10.926Z,18.93
2022-08-22T00:02:44.021Z,9.80
2022-08-22T00:02:46.509Z,11.47
2022-08-22T00:03:02.739Z,12.57
2022-08-22T00:04:26.110Z,15.25
2022-08-22T00:07:41.125Z,15.90
2022-08-22T00:11:02.668Z,16.63
2022-08-22T00:14:32.356Z,15.53
2022-08-22T00:17:55.888Z,16.97
2022-08-22T00:21:32.629Z,14.70
2022-08-22T00:24:50.580Z,14.77
2022-08-22T00:28:32.881Z,17.50
2022-08-22T00:31:42.585Z,17.20
2022-08-22T00:35:05.803Z,17.27
2022-08-22T00:38:29.439Z,19.98
2022-08-22T00:41:35.733Z,14.75
2022-08-22T00:45:03.140Z,15.27
2022-08-22T00:48:28.037Z,17.00
2022-08-22T00:51:56.267Z,15.33
2022-08-22T00:55:14.283Z,14.43
2022-08-22T00:58:47.917Z,13.50
2022-08-22T01:02:11.006Z,13.05
2022-08-22T01:05:50.331Z,17.90
2022-08-22T01:09:07.357Z,16.63
2022-08-22T01:12:19.263Z,19.75
2022-08-22T01:15:26.805Z,15.95
2022-08-22T01:18:32.759Z,14.93
2022-08-22T01:21:59.045Z,14.20
2022-08-22T01:25:25.779Z,16.23
2022-08-22T01:28:47.939Z,14.40
2022-08-22T01:32:03.062Z,18.90
2022-08-22T01:35:47.960Z,19.30
2022-08-22T01:39:15.825Z,17.03
2022-08-22T01:42:32.467Z,14.80
2022-08-22T01:45:55.872Z,14.68
2022-08-22T01:49:13.784Z,12.82
2022-08-22T01:52:33.336Z,13.65
2022-08-22T01:56:09.534Z,11.60
2022-08-22T01:59:25.383Z,16.13
2022-08-22T02:02:55.865Z,15.45
2022-08-22T02:06:14.557Z,14.35
2022-08-22T02:09:34.379Z,13.77
2022-08-22T02:12:46.469Z,13.53
2022-08-22T02:16:20.764Z,14.40
2022-08-22T02:19:38.014Z,13.60
2022-08-22T02:23:11.495Z,10.43
2022-08-22T02:26:28.740Z,11.80
2022-08-22T02:29:50.350Z,12.23
2022-08-22T02:33:10.350Z,11.17
2022-08-22T02:36:28.688Z,11.60
2022-08-22T02:40:05.320Z,13.82
2022-08-22T02:43:27.518Z,11.95
2022-08-22T02:46:47.013Z,9.70
2022-08-22T02:50:12.846Z,7.93
2022-08-22T02:53:36.809Z,7.03
2022-08-22T02:56:53.479Z,7.25
2022-08-22T03:00:02.867Z,6.18
2022-08-22T03:03:19.539Z,5.23
2022-08-22T03:06:34.615Z,5.57
2022-08-22T03:09:54.881Z,4.45
2022-08-22T03:13:08.480Z,5.95
2022-08-22T03:16:20.877Z,7.50
2022-08-22T03:19:30.280Z,6.43
2022-08-22T03:22:57.496Z,7.20
2022-08-22T03:26:17.444Z,6.22
2022-08-22T03:29:29.477Z,6.82
2022-08-22T03:33:16.905Z,6.47
2022-08-22T03:36:25.943Z,6.60
2022-08-22T03:39:50.882Z,6.40
2022-08-22T03:43:37.057Z,5.65
2022-08-22T03:46:52.828Z,5.60
2022-08-22T03:50:24.200Z,7.75
2022-08-22T03:53:41.450Z,4.93
2022-08-22T03:56:58.937Z,6.60
2022-08-22T04:00:36.444Z,4.15
2022-08-22T04:04:10.404Z,3.05
2022-08-22T04:07:33.432Z,4.63
2022-08-22T04:11:24.664Z,4.43
2022-08-22T04:14:39.782Z,4.60
2022-08-22T04:18:07.391Z,5.57
2022-08-22T04:21:54.488Z,6.95
2022-08-22T04:25:07.562Z,4.93
2022-08-22T04:28:16.873Z,6.20
2022-08-22T04:31:27.447Z,5.17
2022-08-22T04:35:07.957Z,8.90
2022-08-22T04:38:33.665Z,5.50
2022-08-22T04:42:31.640Z,6.80
2022-08-22T04:45:46.169Z,7.03
2022-08-22T04:48:59.268Z,6.10
2022-08-22T04:52:18.395Z,7.40
2022-08-22T04:55:33.669Z,7.05
2022-08-22T04:58:51.089Z,6.07
2022-08-22T05:01:59.697Z,7.63
2022-08-22T05:05:15.853Z,8.07
2022-08-22T05:08:25.784Z,6.82
2022-08-22T05:11:30.608Z,6.70
2022-08-22T05:14:43.798Z,9.98
2022-08-22T05:17:49.438Z,10.40
2022-08-22T05:20:55.780Z,4.40
2022-08-22T05:24:10.786Z,7.28
2022-08-22T05:27:26.853Z,8.65
2022-08-22T05:30:32.957Z,4.28
2022-08-22T05:33:49.072Z,6.27
2022-08-22T05:37:31.003Z,9.27
2022-08-22T05:40:37.721Z,7.18
2022-08-22T05:43:43.882Z,5.80
2022-08-22T05:47:01.088Z,5.43
2022-08-22T05:50:30.302Z,8.80
2022-08-22T05:53:41.505Z,10.10
2022-08-22T05:57:12.087Z,7.28
2022-08-22T06:00:22.552Z,6.45
2022-08-22T06:03:32.285Z,3.25
2022-08-22T06:06:49.790Z,2.90
2022-08-22T06:10:08.728Z,4.13
2022-08-22T06:13:32.520Z,3.08
2022-08-22T06:16:48.911Z,1.65
2022-08-22T06:19:54.111Z,5.30
2022-08-22T06:23:00.760Z,4.03
2022-08-22T06:26:05.593Z,7.13
2022-08-22T06:29:51.172Z,5.88
2022-08-22T06:33:07.201Z,2.35
2022-08-22T06:36:32.475Z,4.45
2022-08-22T06:39:40.174Z,3.03
2022-08-22T06:42:50.948Z,4.77
2022-08-22T06:45:58.245Z,4.45
2022-08-22T06:49:03.053Z,4.00
2022-08-22T06:52:18.541Z,3.70
2022-08-22T06:55:23.572Z,3.60
2022-08-22T06:58:34.204Z,5.13
2022-08-22T07:01:53.377Z,4.85
2022-08-22T07:04:57.081Z,5.55
2022-08-22T07:08:07.514Z,4.07
2022-08-22T07:11:25.999Z,4.10
2022-08-22T07:14:42.933Z,5.83
2022-08-22T07:17:59.509Z,5.00
2022-08-22T07:21:04.799Z,4.35
2022-08-22T07:24:09.685Z,4.72
2022-08-22T07:27:45.075Z,4.53
2022-08-22T07:30:54.926Z,5.27
2022-08-22T07:34:23.571Z,7.78
2022-08-22T07:37:37.727Z,4.93
2022-08-22T07:41:06.115Z,4.18
2022-08-22T07:44:23.239Z,5.30
2022-08-22T07:47:37.300Z,4.97
2022-08-22T07:51:08.636Z,5.15
2022-08-22T07:54:39.206Z,4.78
2022-08-22T07:57:47.475Z,5.30
2022-08-22T08:00:51.836Z,4.90
2022-08-22T08:04:07.698Z,7.73
2022-08-22T08:07:14.256Z,6.15
2022-08-22T08:10:25.981Z,3.58
2022-08-22T08:13:35.675Z,5.82
2022-08-22T08:17:10.597Z,7.33
2022-08-22T08:20:17.571Z,4.10
2022-08-22T08:23:23.406Z,9.00
2022-08-22T08:27:06.410Z,10.10
2022-08-22T08:30:20.129Z,3.42
2022-08-22T08:33:28.175Z,5.77
2022-08-22T08:36:37.872Z,6.13
2022-08-22T08:39:51.009Z,6.03
2022-08-22T08:43:29.755Z,5.80
2022-08-22T08:46:41.868Z,6.72
2022-08-22T08:50:03.947Z,4.47
2022-08-22T08:53:19.403Z,5.30
2022-08-22T08:56:37.739Z,6.85
2022-08-22T08:59:53.316Z,4.85
2022-08-22T09:03:12.114Z,6.25
2022-08-22T09:06:42.611Z,5.27
2022-08-22T09:10:13.873Z,6.20
2022-08-22T09:13:25.839Z,5.13
2022-08-22T09:16:51.926Z,2.25
2022-08-22T09:20:15.502Z,5.65
2022-08-22T09:23:37.344Z,6.53
2022-08-22T09:26:48.871Z,9.03
2022-08-22T09:30:05.671Z,10.48
2022-08-22T09:33:21.522Z,11.27
2022-08-22T09:36:53.334Z,7.53
2022-08-22T09:43:45.745Z,9.93
2022-08-22T09:47:24.622Z,6.20
2022-08-22T09:50:46.722Z,4.15
2022-08-22T09:54:13.877Z,7.13
2022-08-22T09:57:23.483Z,2.63
2022-08-22T10:00:36.421Z,4.03
2022-08-22T10:04:04.733Z,3.25
2022-08-22T10:07:31.015Z,5.03
2022-08-22T10:10:57.393Z,7.88
2022-08-22T10:14:22.284Z,3.37
2022-08-22T10:17:41.047Z,3.47
2022-08-22T10:21:02.648Z,6.65
2022-08-22T10:24:25.415Z,4.53
2022-08-22T10:27:43.995Z,3.65
2022-08-22T10:31:23.649Z,4.20
2022-08-22T10:34:36.748Z,4.63
2022-08-22T10:37:57.318Z,6.75
2022-08-22T10:41:26.079Z,5.40
2022-08-22T10:44:48.789Z,5.88
2022-08-22T10:47:54.928Z,11.93
2022-08-22T10:51:09.981Z,3.90
2022-08-22T10:54:39.576Z,3.55
2022-08-22T10:58:10.840Z,3.53
2022-08-22T11:01:37.439Z,7.90
2022-08-22T11:05:25.344Z,7.40
2022-08-22T11:08:57.706Z,8.77
2022-08-22T11:12:37.395Z,3.72
2022-08-22T11:16:23.753Z,2.25
2022-08-22T11:19:44.837Z,2.80
2022-08-22T11:23:19.675Z,3.10
2022-08-22T11:26:47.478Z,3.03
2022-08-22T11:29:53.876Z,12.82
2022-08-22T11:33:16.239Z,4.97
2022-08-22T11:36:26.132Z,2.75
2022-08-22T11:40:19.301Z,6.67
2022-08-22T11:43:37.142Z,4.90
2022-08-22T11:46:46.737Z,3.25
2022-08-22T11:49:57.458Z,3.53
2022-08-22T11:53:18.575Z,4.28
2022-08-22T11:56:40.113Z,7.13
2022-08-22T12:00:13.002Z,3.17
2022-08-22T12:03:23.174Z,6.30
2022-08-22T12:06:45.501Z,5.65
2022-08-22T12:09:59.512Z,10.18
2022-08-22T12:13:18.871Z,1.90
2022-08-22T12:17:02.389Z,3.50
2022-08-22T12:20:32.334Z,8.35
2022-08-22T12:23:50.613Z,5.40
2022-08-22T12:27:28.718Z,3.67
2022-08-22T12:30:55.746Z,4.00
2022-08-22T12:34:07.702Z,5.20
2022-08-22T12:37:21.771Z,8.80
2022-08-22T12:40:44.204Z,3.47
2022-08-22T12:44:25.987Z,7.03
2022-08-22T12:47:49.425Z,2.80
2022-08-22T12:50:57.478Z,2.60
2022-08-22T12:54:14.505Z,4.47
2022-08-22T12:57:34.900Z,2.70
2022-08-22T13:00:45.051Z,5.90
2022-08-22T13:03:56.523Z,3.17
2022-08-22T13:07:06.514Z,10.83
2022-08-22T13:10:17.357Z,3.55
2022-08-22T13:13:37.159Z,3.92
2022-08-22T13:16:49.053Z,3.35
2022-08-22T13:20:11.734Z,3.40
2022-08-22T13:23:24.411Z,12.10
2022-08-22T13:26:33.459Z,6.95
2022-08-22T13:30:01.992Z,10.10
2022-08-22T13:33:15.710Z,4.78
2022-08-22T13:36:22.115Z,7.17
2022-08-22T13:39:32.813Z,3.33
2022-08-22T13:42:45.521Z,3.95
2022-08-22T13:45:58.494Z,4.05
2022-08-22T13:49:12.653Z,7.72
2022-08-22T13:52:38.171Z,7.37
2022-08-22T13:55:51.828Z,6.33
2022-08-22T13:59:01.749Z,4.80
2022-08-22T14:02:18.093Z,4.82
2022-08-22T14:05:44.535Z,5.15
2022-08-22T14:08:49.004Z,9.30
2022-08-22T14:12:04.338Z,3.33
2022-08-22T14:15:11.053Z,4.85
2022-08-22T14:18:30.339Z,5.38
2022-08-22T14:21:51.548Z,3.20
2022-08-22T14:24:58.204Z,3.63
2022-08-22T14:28:28.670Z,5.20
2022-08-22T14:31:32.494Z,7.38
2022-08-22T14:34:42.724Z,5.82
2022-08-22T14:37:54.375Z,4.43
2022-08-22T14:41:05.434Z,3.73
2022-08-22T14:44:17.301Z,3.40
2022-08-22T14:48:29.340Z,5.85
2022-08-22T14:51:29.452Z,4.38
2022-08-22T14:54:34.434Z,10.60
2022-08-22T14:57:46.769Z,5.40
2022-08-22T15:00:54.635Z,3.63
2022-08-22T15:04:11.130Z,3.08
2022-08-22T15:07:33.763Z,4.05
2022-08-22T15:10:42.219Z,5.43
2022-08-22T15:14:21.343Z,3.93
2022-08-22T15:17:44.848Z,6.20
2022-08-22T15:21:08.948Z,10.95
2022-08-22T15:24:14.684Z,4.60
2022-08-22T15:27:22.438Z,4.82
2022-08-22T15:30:44.395Z,4.37
2022-08-22T15:33:49.494Z,5.00
2022-08-22T15:37:18.974Z,5.60
2022-08-22T15:40:36.645Z,4.82
2022-08-22T15:43:50.752Z,6.43
2022-08-22T15:46:59.064Z,3.40
2022-08-22T15:50:15.937Z,2.80
2022-08-22T15:53:33.575Z,5.75
2022-08-22T15:57:02.069Z,5.63
2022-08-22T16:00:35.099Z,5.47
2022-08-22T16:03:42.448Z,8.30
2022-08-22T16:06:56.562Z,10.10
2022-08-22T16:10:01.255Z,7.65
2022-08-22T16:13:39.491Z,8.55
2022-08-22T16:16:42.747Z,4.40
2022-08-22T16:19:45.993Z,6.00
2022-08-22T16:22:58.400Z,4.83
2022-08-22T16:26:06.600Z,4.40
2022-08-22T16:29:17.512Z,3.45
2022-08-22T16:32:28.235Z,17.48
2022-08-22T16:36:08.707Z,5.43
2022-08-22T16:39:21.337Z,4.10
2022-08-22T16:42:28.000Z,7.53
2022-08-22T16:45:36.708Z,6.85
2022-08-22T16:48:40.114Z,4.85
2022-08-22T16:52:20.851Z,5.30
2022-08-22T16:55:30.088Z,5.83
2022-08-22T16:59:22.487Z,3.83
2022-08-22T17:02:57.958Z,5.80
2022-08-22T17:06:20.693Z,7.25
2022-08-22T17:09:38.655Z,9.97
2022-08-22T17:12:54.073Z,6.57
2022-08-22T17:16:38.893Z,3.78
2022-08-22T17:19:57.151Z,6.10
2022-08-22T17:23:15.240Z,6.13
2022-08-22T17:26:45.732Z,7.10
2022-08-22T17:30:13.549Z,6.83
2022-08-22T17:33:51.765Z,7.43
2022-08-22T17:37:31.220Z,7.63
2022-08-22T17:40:57.100Z,11.25
2022-08-22T17:44:35.396Z,10.40
2022-08-22T17:47:44.377Z,6.40
2022-08-22T17:51:11.949Z,4.40
2022-08-22T17:54:28.270Z,6.65
2022-08-22T17:58:03.931Z,4.38
2022-08-22T18:01:32.553Z,7.37
2022-08-22T18:05:02.938Z,4.77
2022-08-22T18:09:12.882Z,8.48
2022-08-22T18:12:15.580Z,7.65
2022-08-22T18:15:38.502Z,9.73
2022-08-22T18:18:53.350Z,6.83
2022-08-22T18:22:22.911Z,6.30
2022-08-22T18:25:46.025Z,9.45
2022-08-22T18:29:04.270Z,9.05
2022-08-22T18:32:41.955Z,8.52
2022-08-22T18:36:01.480Z,6.10
2022-08-22T18:39:14.668Z,7.53
2022-08-22T18:42:30.278Z,7.90
2022-08-22T18:46:04.961Z,14.85
2022-08-22T18:49:20.339Z,7.95
2022-08-22T18:52:26.304Z,9.10
2022-08-22T18:55:56.111Z,11.03
2022-08-22T18:59:34.408Z,10.52
2022-08-22T19:03:22.144Z,13.07
2022-08-22T19:06:43.550Z,11.73
2022-08-22T19:09:57.833Z,9.53
2022-08-22T19:13:14.743Z,8.53
2022-08-22T19:16:51.834Z,7.03
2022-08-22T19:20:22.256Z,10.10
2022-08-22T19:23:40.402Z,8.15
2022-08-22T19:26:47.732Z,10.73
2022-08-22T19:29:55.076Z,9.77
2022-08-22T19:33:10.311Z,8.57
2022-08-22T19:36:30.834Z,14.65
2022-08-22T19:39:43.293Z,14.65
2022-08-22T19:42:49.939Z,10.43
2022-08-22T19:45:55.400Z,10.07
2022-08-22T19:48:58.993Z,11.45
2022-08-22T19:52:23.568Z,10.40
2022-08-22T19:55:38.775Z,9.38
2022-08-22T19:58:56.226Z,10.17
2022-08-22T20:02:16.937Z,7.77
2022-08-22T20:05:27.782Z,8.32
2022-08-22T20:08:55.247Z,10.80
2022-08-22T20:12:13.271Z,11.07
2022-08-22T20:15:24.976Z,11.27
2022-08-22T20:19:05.133Z,15.17
2022-08-22T20:22:30.823Z,14.73
2022-08-22T20:25:50.175Z,9.52
2022-08-22T20:28:54.228Z,10.07
2022-08-22T20:31:59.117Z,11.77
2022-08-22T20:35:04.645Z,12.00
2022-08-22T20:38:22.176Z,11.23
2022-08-22T20:41:39.733Z,12.57
2022-08-22T20:44:53.225Z,8.63
2022-08-22T20:47:57.163Z,12.83
2022-08-22T20:51:06.865Z,12.10
2022-08-22T20:54:24.099Z,12.00
2022-08-22T20:57:27.969Z,13.85
2022-08-22T21:00:35.964Z,10.23
2022-08-22T21:03:46.068Z,9.00
2022-08-22T21:07:00.114Z,9.53
2022-08-22T21:10:49.167Z,7.13
2022-08-22T21:13:53.444Z,9.27
2022-08-22T21:16:56.832Z,7.18
2022-08-22T21:20:18.351Z,8.23
2022-08-22T21:23:21.832Z,10.83
2022-08-22T21:26:51.495Z,11.23
2022-08-22T21:29:55.128Z,7.28
2022-08-22T21:32:58.489Z,9.95
2022-08-22T21:36:01.744Z,8.10
2022-08-22T21:39:17.229Z,10.37
2022-08-22T21:42:41.463Z,9.05
2022-08-22T21:45:47.423Z,7.75
2022-08-22T21:49:02.927Z,8.48
2022-08-22T21:52:06.128Z,10.67
2022-08-22T21:55:27.316Z,9.43
2022-08-22T21:58:36.749Z,7.45
2022-08-22T22:01:42.643Z,9.48
2022-08-22T22:04:45.974Z,10.20
2022-08-22T22:07:49.224Z,9.23
2022-08-22T22:10:56.036Z,10.60
2022-08-22T22:13:59.449Z,8.10
2022-08-22T22:17:02.612Z,9.00
2022-08-22T22:20:06.972Z,9.00
2022-08-22T22:23:10.503Z,7.97
2022-08-22T22:26:14.068Z,10.50
2022-08-22T22:29:20.212Z,10.65
2022-08-22T22:32:23.441Z,10.02
2022-08-22T22:35:26.801Z,8.60
2022-08-22T22:38:30.040Z,9.13
2022-08-22T22:41:33.713Z,9.27
2022-08-22T22:44:36.988Z,10.43
2022-08-22T22:47:40.159Z,8.65
2022-08-22T22:50:44.180Z,9.07
2022-08-22T22:53:47.469Z,9.80
2022-08-22T22:56:50.668Z,9.47
2022-08-22T22:59:53.852Z,10.35
2022-08-22T23:02:58.348Z,11.05
2022-08-22T23:06:01.620Z,10.65
2022-08-22T23:09:05.084Z,9.70
2022-08-22T23:12:14.759Z,10.07
2022-08-22T23:15:17.999Z,8.73
2022-08-22T23:18:21.310Z,9.48
2022-08-22T23:21:33.977Z,9.95
2022-08-22T23:24:39.110Z,8.67
2022-08-22T23:27:42.416Z,9.33
2022-08-22T23:30:45.581Z,9.93
2022-08-22T23:33:48.703Z,8.20
2022-08-22T23:36:55.317Z,10.13
2022-08-22T23:39:58.556Z,11.90
2022-08-22T23:43:01.843Z,10.00
2022-08-22T23:46:05.164Z,11.07
2022-08-22T23:49:08.550Z,11.23
2022-08-22T23:52:13.039Z,10.18
2022-08-22T23:55:16.348Z,12.93
2022-08-22T23:58:19.600Z,10.03
